sensor_id;sensor_type;location;lat;lon;timestamp;temperature;humidity
19007;DHT22;9636;47.382;8.480;2023-04-02T00:00:17;14.70;99.90
19007;DHT22;9636;47.382;8.480;2023-04-02T00:02:47;14.70;99.90
19007;DHT22;9636;47.382;8.480;2023-04-02T00:05:30;14.70;99.90
19007;DHT22;9636;47.382;8.480;2023-04-02T00:08:00;14.70;99.90
19007;DHT22;9636;47.382;8.480;2023-04-02T00:10:29;14.70;99.90
19007;DHT22;9636;47.382;8.480;2023-04-02T00:13:01;14.70;99.90
19007;DHT22;9636;47.382;8.480;2023-04-02T00:15:29;14.70;99.90
19007;DHT22;9636;47.382;8.480;2023-04-02T00:17:58;14.60;99.90
19007;DHT22;9636;47.382;8.480;2023-04-02T00:20:25;14.60;99.90
19007;DHT22;9636;47.382;8.480;2023-04-02T00:22:53;14.60;99.90
19007;DHT22;9636;47.382;8.480;2023-04-02T00:25:21;14.60;99.90
19007;DHT22;9636;47.382;8.480;2023-04-02T00:27:48;14.60;99.90
19007;DHT22;9636;47.382;8.480;2023-04-02T00:30:15;14.60;99.90
19007;DHT22;9636;47.382;8.480;2023-04-02T00:32:42;14.60;99.90
19007;DHT22;9636;47.382;8.480;2023-04-02T00:35:15;14.50;99.90
19007;DHT22;9636;47.382;8.480;2023-04-02T00:37:43;14.50;99.90
19007;DHT22;9636;47.382;8.480;2023-04-02T00:40:17;14.50;99.90
19007;DHT22;9636;47.382;8.480;2023-04-02T00:42:47;14.50;99.90
19007;DHT22;9636;47.382;8.480;2023-04-02T00:45:21;14.50;99.90
19007;DHT22;9636;47.382;8.480;2023-04-02T00:47:48;14.50;99.90
19007;DHT22;9636;47.382;8.480;2023-04-02T00:50:22;14.50;99.90
19007;DHT22;9636;47.382;8.480;2023-04-02T00:52:52;14.50;99.90
19007;DHT22;9636;47.382;8.480;2023-04-02T00:55:22;14.50;99.90
19007;DHT22;9636;47.382;8.480;2023-04-02T00:57:50;14.50;99.90
19007;DHT22;9636;47.382;8.480;2023-04-02T01:00:21;14.50;99.90
19007;DHT22;9636;47.382;8.480;2023-04-02T01:05:59;14.40;99.90
19007;DHT22;9636;47.382;8.480;2023-04-02T01:08:38;14.40;99.90
19007;DHT22;9636;47.382;8.480;2023-04-02T01:11:19;14.40;99.90
19007;DHT22;9636;47.382;8.480;2023-04-02T01:13:55;14.40;99.90
19007;DHT22;9636;47.382;8.480;2023-04-02T01:16:32;14.40;99.90
19007;DHT22;9636;47.382;8.480;2023-04-02T01:19:06;14.40;99.90
19007;DHT22;9636;47.382;8.480;2023-04-02T01:21:52;14.30;99.90
19007;DHT22;9636;47.382;8.480;2023-04-02T01:24:20;14.40;99.90
19007;DHT22;9636;47.382;8.480;2023-04-02T01:26:52;14.30;99.90
19007;DHT22;9636;47.382;8.480;2023-04-02T01:29:24;14.30;99.90
19007;DHT22;9636;47.382;8.480;2023-04-02T01:31:55;14.30;99.90
19007;DHT22;9636;47.382;8.480;2023-04-02T01:34:25;14.30;99.90
19007;DHT22;9636;47.382;8.480;2023-04-02T01:37:02;14.30;99.90
19007;DHT22;9636;47.382;8.480;2023-04-02T01:39:48;14.30;99.90
19007;DHT22;9636;47.382;8.480;2023-04-02T01:42:22;14.30;99.90
19007;DHT22;9636;47.382;8.480;2023-04-02T01:44:53;14.30;99.90
19007;DHT22;9636;47.382;8.480;2023-04-02T01:47:22;14.20;99.90
19007;DHT22;9636;47.382;8.480;2023-04-02T01:49:52;14.20;99.90
19007;DHT22;9636;47.382;8.480;2023-04-02T01:52:33;14.20;99.90
19007;DHT22;9636;47.382;8.480;2023-04-02T01:55:01;14.20;99.90
19007;DHT22;9636;47.382;8.480;2023-04-02T01:57:29;14.20;99.90
19007;DHT22;9636;47.382;8.480;2023-04-02T01:59:58;14.20;99.90
19007;DHT22;9636;47.382;8.480;2023-04-02T02:02:26;14.10;99.90
19007;DHT22;9636;47.382;8.480;2023-04-02T02:04:53;14.20;99.90
19007;DHT22;9636;47.382;8.480;2023-04-02T02:07:20;14.10;99.90
19007;DHT22;9636;47.382;8.480;2023-04-02T02:09:48;14.10;99.90
19007;DHT22;9636;47.382;8.480;2023-04-02T02:12:15;14.10;99.90
19007;DHT22;9636;47.382;8.480;2023-04-02T02:14:45;14.10;99.90
19007;DHT22;9636;47.382;8.480;2023-04-02T02:17:16;14.10;99.90
19007;DHT22;9636;47.382;8.480;2023-04-02T02:19:44;14.10;99.90
19007;DHT22;9636;47.382;8.480;2023-04-02T02:22:17;14.10;99.90
19007;DHT22;9636;47.382;8.480;2023-04-02T02:24:47;14.00;99.90
19007;DHT22;9636;47.382;8.480;2023-04-02T02:27:41;14.00;99.90
19007;DHT22;9636;47.382;8.480;2023-04-02T02:30:13;14.00;99.90
19007;DHT22;9636;47.382;8.480;2023-04-02T02:32:54;14.00;99.90
19007;DHT22;9636;47.382;8.480;2023-04-02T02:35:27;14.00;99.90
19007;DHT22;9636;47.382;8.480;2023-04-02T02:37:59;14.00;99.90
19007;DHT22;9636;47.382;8.480;2023-04-02T02:40:33;13.90;99.90
19007;DHT22;9636;47.382;8.480;2023-04-02T02:43:03;13.90;99.90
19007;DHT22;9636;47.382;8.480;2023-04-02T02:45:35;13.90;99.90
19007;DHT22;9636;47.382;8.480;2023-04-02T02:48:09;13.90;99.90
19007;DHT22;9636;47.382;8.480;2023-04-02T02:50:37;13.90;99.90
19007;DHT22;9636;47.382;8.480;2023-04-02T02:53:15;13.90;99.90
19007;DHT22;9636;47.382;8.480;2023-04-02T02:55:43;13.90;99.90
19007;DHT22;9636;47.382;8.480;2023-04-02T02:58:13;13.80;99.90
19007;DHT22;9636;47.382;8.480;2023-04-02T03:00:41;13.80;99.90
19007;DHT22;9636;47.382;8.480;2023-04-02T03:03:13;13.80;99.90
19007;DHT22;9636;47.382;8.480;2023-04-02T03:05:42;13.80;99.90
19007;DHT22;9636;47.382;8.480;2023-04-02T03:08:14;13.80;99.90
19007;DHT22;9636;47.382;8.480;2023-04-02T03:10:49;13.80;99.90
19007;DHT22;9636;47.382;8.480;2023-04-02T03:13:21;13.80;99.90
19007;DHT22;9636;47.382;8.480;2023-04-02T03:15:55;13.70;99.90
19007;DHT22;9636;47.382;8.480;2023-04-02T03:18:34;13.70;99.90
19007;DHT22;9636;47.382;8.480;2023-04-02T03:21:09;13.70;99.90
19007;DHT22;9636;47.382;8.480;2023-04-02T03:23:40;13.70;99.90
19007;DHT22;9636;47.382;8.480;2023-04-02T03:26:12;13.70;99.90
19007;DHT22;9636;47.382;8.480;2023-04-02T03:28:44;13.70;99.90
19007;DHT22;9636;47.382;8.480;2023-04-02T03:31:16;13.60;99.90
19007;DHT22;9636;47.382;8.480;2023-04-02T03:33:49;13.60;99.90
19007;DHT22;9636;47.382;8.480;2023-04-02T03:36:19;13.60;99.90
19007;DHT22;9636;47.382;8.480;2023-04-02T03:38:50;13.60;99.90
19007;DHT22;9636;47.382;8.480;2023-04-02T03:41:21;13.60;99.90
19007;DHT22;9636;47.382;8.480;2023-04-02T03:43:51;13.60;99.90
19007;DHT22;9636;47.382;8.480;2023-04-02T03:46:23;13.50;99.90
19007;DHT22;9636;47.382;8.480;2023-04-02T03:48:54;13.50;99.90
19007;DHT22;9636;47.382;8.480;2023-04-02T03:51:27;13.50;99.90
19007;DHT22;9636;47.382;8.480;2023-04-02T03:53:55;13.50;99.90
19007;DHT22;9636;47.382;8.480;2023-04-02T03:56:26;13.50;99.90
19007;DHT22;9636;47.382;8.480;2023-04-02T03:59:02;13.50;99.90
19007;DHT22;9636;47.382;8.480;2023-04-02T04:01:33;13.50;99.90
19007;DHT22;9636;47.382;8.480;2023-04-02T04:04:06;13.50;99.90
19007;DHT22;9636;47.382;8.480;2023-04-02T04:06:36;13.40;99.90
19007;DHT22;9636;47.382;8.480;2023-04-02T04:09:09;13.40;99.90
19007;DHT22;9636;47.382;8.480;2023-04-02T04:11:44;13.40;99.90
19007;DHT22;9636;47.382;8.480;2023-04-02T04:14:15;13.40;99.90
19007;DHT22;9636;47.382;8.480;2023-04-02T04:16:46;13.40;99.90
19007;DHT22;9636;47.382;8.480;2023-04-02T04:19:23;13.40;99.90
19007;DHT22;9636;47.382;8.480;2023-04-02T04:22:07;13.40;99.90
19007;DHT22;9636;47.382;8.480;2023-04-02T04:24:34;13.40;99.90
19007;DHT22;9636;47.382;8.480;2023-04-02T04:27:05;13.30;99.90
19007;DHT22;9636;47.382;8.480;2023-04-02T04:29:40;13.30;99.90
19007;DHT22;9636;47.382;8.480;2023-04-02T04:32:18;13.30;99.90
19007;DHT22;9636;47.382;8.480;2023-04-02T04:34:56;13.30;99.90
19007;DHT22;9636;47.382;8.480;2023-04-02T04:37:29;13.30;99.90
19007;DHT22;9636;47.382;8.480;2023-04-02T04:40:03;13.30;99.90
19007;DHT22;9636;47.382;8.480;2023-04-02T04:42:34;13.30;99.90
19007;DHT22;9636;47.382;8.480;2023-04-02T04:45:07;13.30;99.90
19007;DHT22;9636;47.382;8.480;2023-04-02T04:47:40;13.30;99.90
19007;DHT22;9636;47.382;8.480;2023-04-02T04:50:15;13.30;99.90
19007;DHT22;9636;47.382;8.480;2023-04-02T04:52:47;13.30;99.90
19007;DHT22;9636;47.382;8.480;2023-04-02T04:55:28;13.30;99.90
19007;DHT22;9636;47.382;8.480;2023-04-02T04:57:59;13.30;99.90
19007;DHT22;9636;47.382;8.480;2023-04-02T05:00:38;13.30;99.90
19007;DHT22;9636;47.382;8.480;2023-04-02T05:03:14;13.30;99.90
19007;DHT22;9636;47.382;8.480;2023-04-02T05:05:44;13.30;99.90
19007;DHT22;9636;47.382;8.480;2023-04-02T05:08:14;13.20;99.90
19007;DHT22;9636;47.382;8.480;2023-04-02T05:10:46;13.20;99.90
19007;DHT22;9636;47.382;8.480;2023-04-02T05:13:17;13.20;99.90
19007;DHT22;9636;47.382;8.480;2023-04-02T05:15:51;13.20;99.90
19007;DHT22;9636;47.382;8.480;2023-04-02T05:18:25;13.20;99.90
19007;DHT22;9636;47.382;8.480;2023-04-02T05:20:58;13.20;99.90
19007;DHT22;9636;47.382;8.480;2023-04-02T05:23:30;13.20;99.90
19007;DHT22;9636;47.382;8.480;2023-04-02T05:26:04;13.20;99.90
19007;DHT22;9636;47.382;8.480;2023-04-02T05:28:36;13.20;99.90
19007;DHT22;9636;47.382;8.480;2023-04-02T05:31:07;13.20;99.90
19007;DHT22;9636;47.382;8.480;2023-04-02T05:33:38;13.20;99.90
19007;DHT22;9636;47.382;8.480;2023-04-02T05:36:09;13.20;99.90
19007;DHT22;9636;47.382;8.480;2023-04-02T05:38:39;13.20;99.90
19007;DHT22;9636;47.382;8.480;2023-04-02T05:41:15;13.20;99.90
19007;DHT22;9636;47.382;8.480;2023-04-02T05:43:46;13.20;99.90
19007;DHT22;9636;47.382;8.480;2023-04-02T05:46:15;13.20;99.90
19007;DHT22;9636;47.382;8.480;2023-04-02T05:48:44;13.20;99.90
19007;DHT22;9636;47.382;8.480;2023-04-02T05:51:19;13.20;99.90
19007;DHT22;9636;47.382;8.480;2023-04-02T05:53:51;13.30;99.90
19007;DHT22;9636;47.382;8.480;2023-04-02T05:56:22;13.30;99.90
19007;DHT22;9636;47.382;8.480;2023-04-02T05:58:51;13.30;99.90
19007;DHT22;9636;47.382;8.480;2023-04-02T06:01:38;13.30;99.90
19007;DHT22;9636;47.382;8.480;2023-04-02T06:04:14;13.30;99.90
19007;DHT22;9636;47.382;8.480;2023-04-02T06:06:48;13.40;99.90
19007;DHT22;9636;47.382;8.480;2023-04-02T06:09:22;13.30;99.90
19007;DHT22;9636;47.382;8.480;2023-04-02T06:11:54;13.30;99.90
19007;DHT22;9636;47.382;8.480;2023-04-02T06:14:23;13.40;99.90
19007;DHT22;9636;47.382;8.480;2023-04-02T06:16:49;13.40;99.90
19007;DHT22;9636;47.382;8.480;2023-04-02T06:19:21;13.50;99.90
19007;DHT22;9636;47.382;8.480;2023-04-02T06:21:57;13.50;99.90
19007;DHT22;9636;47.382;8.480;2023-04-02T06:24:26;13.60;99.90
19007;DHT22;9636;47.382;8.480;2023-04-02T06:26:56;13.50;99.90
19007;DHT22;9636;47.382;8.480;2023-04-02T06:29:30;13.60;99.90
19007;DHT22;9636;47.382;8.480;2023-04-02T06:32:04;13.60;99.90
19007;DHT22;9636;47.382;8.480;2023-04-02T06:34:32;13.70;99.90
19007;DHT22;9636;47.382;8.480;2023-04-02T06:37:09;13.70;99.90
19007;DHT22;9636;47.382;8.480;2023-04-02T06:39:37;13.80;99.90
19007;DHT22;9636;47.382;8.480;2023-04-02T06:42:11;14.00;99.90
19007;DHT22;9636;47.382;8.480;2023-04-02T06:44:38;14.20;99.90
19007;DHT22;9636;47.382;8.480;2023-04-02T06:47:11;14.40;99.90
19007;DHT22;9636;47.382;8.480;2023-04-02T06:49:45;14.50;99.90
19007;DHT22;9636;47.382;8.480;2023-04-02T06:52:17;14.60;99.90
19007;DHT22;9636;47.382;8.480;2023-04-02T06:54:47;14.60;99.90
19007;DHT22;9636;47.382;8.480;2023-04-02T06:57:14;14.60;99.90
19007;DHT22;9636;47.382;8.480;2023-04-02T06:59:41;14.60;99.90
19007;DHT22;9636;47.382;8.480;2023-04-02T07:05:05;14.90;99.90
19007;DHT22;9636;47.382;8.480;2023-04-02T07:07:34;15.10;99.90
19007;DHT22;9636;47.382;8.480;2023-04-02T07:10:01;15.20;99.90
19007;DHT22;9636;47.382;8.480;2023-04-02T07:12:28;15.30;99.90
19007;DHT22;9636;47.382;8.480;2023-04-02T07:14:55;15.40;99.90
19007;DHT22;9636;47.382;8.480;2023-04-02T07:17:22;15.50;99.90
19007;DHT22;9636;47.382;8.480;2023-04-02T07:19:49;15.50;99.90
19007;DHT22;9636;47.382;8.480;2023-04-02T07:22:17;15.60;99.90
19007;DHT22;9636;47.382;8.480;2023-04-02T07:24:45;15.60;99.90
19007;DHT22;9636;47.382;8.480;2023-04-02T07:27:13;15.70;99.90
19007;DHT22;9636;47.382;8.480;2023-04-02T07:29:40;15.70;99.90
19007;DHT22;9636;47.382;8.480;2023-04-02T07:32:08;15.80;99.90
19007;DHT22;9636;47.382;8.480;2023-04-02T07:34:35;15.90;99.90
19007;DHT22;9636;47.382;8.480;2023-04-02T07:37:02;15.90;99.90
19007;DHT22;9636;47.382;8.480;2023-04-02T07:39:29;16.00;99.90
19007;DHT22;9636;47.382;8.480;2023-04-02T07:41:58;16.20;99.90
19007;DHT22;9636;47.382;8.480;2023-04-02T07:44:25;16.30;99.90
19007;DHT22;9636;47.382;8.480;2023-04-02T07:46:52;16.40;99.90
19007;DHT22;9636;47.382;8.480;2023-04-02T07:49:19;16.70;99.90
19007;DHT22;9636;47.382;8.480;2023-04-02T07:51:46;16.90;99.90
19007;DHT22;9636;47.382;8.480;2023-04-02T07:54:13;17.00;99.90
19007;DHT22;9636;47.382;8.480;2023-04-02T07:56:40;17.20;99.90
19007;DHT22;9636;47.382;8.480;2023-04-02T07:59:08;17.20;99.90
19007;DHT22;9636;47.382;8.480;2023-04-02T08:01:35;17.70;99.90
19007;DHT22;9636;47.382;8.480;2023-04-02T08:04:03;17.90;99.90
19007;DHT22;9636;47.382;8.480;2023-04-02T08:06:32;17.90;99.90
19007;DHT22;9636;47.382;8.480;2023-04-02T08:08:59;17.80;99.90
19007;DHT22;9636;47.382;8.480;2023-04-02T08:11:26;17.80;99.90
19007;DHT22;9636;47.382;8.480;2023-04-02T08:13:52;17.80;99.90
19007;DHT22;9636;47.382;8.480;2023-04-02T08:16:21;17.90;99.90
19007;DHT22;9636;47.382;8.480;2023-04-02T08:18:49;18.00;99.90
19007;DHT22;9636;47.382;8.480;2023-04-02T08:21:16;18.10;99.90
19007;DHT22;9636;47.382;8.480;2023-04-02T08:23:43;18.20;99.90
19007;DHT22;9636;47.382;8.480;2023-04-02T08:26:16;18.40;99.90
19007;DHT22;9636;47.382;8.480;2023-04-02T08:28:43;18.50;99.90
19007;DHT22;9636;47.382;8.480;2023-04-02T08:31:09;18.50;99.90
19007;DHT22;9636;47.382;8.480;2023-04-02T08:33:39;18.60;99.90
19007;DHT22;9636;47.382;8.480;2023-04-02T08:36:06;18.80;99.90
19007;DHT22;9636;47.382;8.480;2023-04-02T08:38:33;18.80;99.90
19007;DHT22;9636;47.382;8.480;2023-04-02T08:41:01;18.80;99.90
19007;DHT22;9636;47.382;8.480;2023-04-02T08:43:40;18.80;99.90
19007;DHT22;9636;47.382;8.480;2023-04-02T08:46:19;18.80;99.90
19007;DHT22;9636;47.382;8.480;2023-04-02T08:48:51;18.90;99.90
19007;DHT22;9636;47.382;8.480;2023-04-02T08:51:23;19.10;99.90
19007;DHT22;9636;47.382;8.480;2023-04-02T08:53:52;19.20;99.90
19007;DHT22;9636;47.382;8.480;2023-04-02T08:56:26;19.30;99.90
19007;DHT22;9636;47.382;8.480;2023-04-02T08:58:57;19.30;99.90
19007;DHT22;9636;47.382;8.480;2023-04-02T09:01:34;19.40;99.90
19007;DHT22;9636;47.382;8.480;2023-04-02T09:04:11;19.50;99.90
19007;DHT22;9636;47.382;8.480;2023-04-02T09:06:39;19.50;99.90
19007;DHT22;9636;47.382;8.480;2023-04-02T09:09:08;19.60;99.90
19007;DHT22;9636;47.382;8.480;2023-04-02T09:11:42;19.70;99.90
19007;DHT22;9636;47.382;8.480;2023-04-02T09:14:15;19.90;99.90
19007;DHT22;9636;47.382;8.480;2023-04-02T09:16:45;19.90;99.90
19007;DHT22;9636;47.382;8.480;2023-04-02T09:19:20;19.90;99.90
19007;DHT22;9636;47.382;8.480;2023-04-02T09:21:58;19.90;99.90
19007;DHT22;9636;47.382;8.480;2023-04-02T09:24:26;19.90;99.90
19007;DHT22;9636;47.382;8.480;2023-04-02T09:26:53;19.90;99.90
19007;DHT22;9636;47.382;8.480;2023-04-02T09:29:37;20.00;99.90
19007;DHT22;9636;47.382;8.480;2023-04-02T09:35:08;19.90;99.90
19007;DHT22;9636;47.382;8.480;2023-04-02T09:37:37;20.00;99.90
19007;DHT22;9636;47.382;8.480;2023-04-02T09:40:24;20.00;99.90
19007;DHT22;9636;47.382;8.480;2023-04-02T09:43:02;20.20;99.90
19007;DHT22;9636;47.382;8.480;2023-04-02T09:45:29;20.40;99.90
19007;DHT22;9636;47.382;8.480;2023-04-02T09:47:57;20.50;99.90
19007;DHT22;9636;47.382;8.480;2023-04-02T09:50:30;20.50;99.90
19007;DHT22;9636;47.382;8.480;2023-04-02T09:52:58;20.60;99.90
19007;DHT22;9636;47.382;8.480;2023-04-02T09:55:26;20.60;99.90
19007;DHT22;9636;47.382;8.480;2023-04-02T09:58:12;20.60;99.90
19007;DHT22;9636;47.382;8.480;2023-04-02T10:00:48;20.70;99.90
19007;DHT22;9636;47.382;8.480;2023-04-02T10:03:22;20.70;99.90
19007;DHT22;9636;47.382;8.480;2023-04-02T10:06:07;20.70;99.90
19007;DHT22;9636;47.382;8.480;2023-04-02T10:08:36;20.70;99.90
19007;DHT22;9636;47.382;8.480;2023-04-02T10:11:06;20.70;99.90
19007;DHT22;9636;47.382;8.480;2023-04-02T10:13:40;20.70;99.90
19007;DHT22;9636;47.382;8.480;2023-04-02T10:16:12;20.80;99.90
19007;DHT22;9636;47.382;8.480;2023-04-02T10:18:43;20.80;99.90
19007;DHT22;9636;47.382;8.480;2023-04-02T10:21:16;20.80;99.90
19007;DHT22;9636;47.382;8.480;2023-04-02T10:23:44;21.00;99.90
19007;DHT22;9636;47.382;8.480;2023-04-02T10:26:26;21.10;99.90
19007;DHT22;9636;47.382;8.480;2023-04-02T10:29:12;21.10;99.90
19007;DHT22;9636;47.382;8.480;2023-04-02T10:31:49;21.10;99.90
19007;DHT22;9636;47.382;8.480;2023-04-02T10:34:22;21.10;99.90
19007;DHT22;9636;47.382;8.480;2023-04-02T10:36:53;21.10;99.90
19007;DHT22;9636;47.382;8.480;2023-04-02T10:39:24;21.20;99.90
19007;DHT22;9636;47.382;8.480;2023-04-02T10:42:00;21.20;99.90
19007;DHT22;9636;47.382;8.480;2023-04-02T10:44:42;21.30;99.90
19007;DHT22;9636;47.382;8.480;2023-04-02T10:47:26;21.30;99.90
19007;DHT22;9636;47.382;8.480;2023-04-02T10:50:05;21.30;99.90
19007;DHT22;9636;47.382;8.480;2023-04-02T10:52:38;21.40;99.90
19007;DHT22;9636;47.382;8.480;2023-04-02T10:55:15;21.40;99.90
19007;DHT22;9636;47.382;8.480;2023-04-02T10:57:44;21.40;99.90
19007;DHT22;9636;47.382;8.480;2023-04-02T11:00:18;21.50;99.90
19007;DHT22;9636;47.382;8.480;2023-04-02T11:02:51;21.50;99.90
19007;DHT22;9636;47.382;8.480;2023-04-02T11:05:25;21.60;99.90
19007;DHT22;9636;47.382;8.480;2023-04-02T11:08:03;21.60;99.90
19007;DHT22;9636;47.382;8.480;2023-04-02T11:10:33;21.70;99.90
19007;DHT22;9636;47.382;8.480;2023-04-02T11:13:05;21.70;99.90
19007;DHT22;9636;47.382;8.480;2023-04-02T11:15:34;21.70;99.90
19007;DHT22;9636;47.382;8.480;2023-04-02T11:18:02;21.70;99.90
19007;DHT22;9636;47.382;8.480;2023-04-02T11:21:00;21.70;99.90
19007;DHT22;9636;47.382;8.480;2023-04-02T11:23:30;21.70;99.90
19007;DHT22;9636;47.382;8.480;2023-04-02T11:26:38;21.60;99.90
19007;DHT22;9636;47.382;8.480;2023-04-02T11:29:13;21.60;99.90
19007;DHT22;9636;47.382;8.480;2023-04-02T11:31:41;21.60;99.90
19007;DHT22;9636;47.382;8.480;2023-04-02T11:34:15;21.60;99.90
19007;DHT22;9636;47.382;8.480;2023-04-02T11:37:06;21.70;99.90
19007;DHT22;9636;47.382;8.480;2023-04-02T11:39:51;21.60;99.90
19007;DHT22;9636;47.382;8.480;2023-04-02T11:42:28;21.70;99.90
19007;DHT22;9636;47.382;8.480;2023-04-02T11:44:58;21.60;99.90
19007;DHT22;9636;47.382;8.480;2023-04-02T11:47:26;21.60;99.80
19007;DHT22;9636;47.382;8.480;2023-04-02T11:50:01;21.60;99.80
19007;DHT22;9636;47.382;8.480;2023-04-02T11:52:37;21.60;99.90
19007;DHT22;9636;47.382;8.480;2023-04-02T11:55:34;21.60;99.50
19007;DHT22;9636;47.382;8.480;2023-04-02T12:04:21;22.20;97.80
19007;DHT22;9636;47.382;8.480;2023-04-02T12:07:03;22.30;97.70
19007;DHT22;9636;47.382;8.480;2023-04-02T12:09:42;22.40;97.70
19007;DHT22;9636;47.382;8.480;2023-04-02T12:12:25;22.30;97.40
19007;DHT22;9636;47.382;8.480;2023-04-02T12:14:54;22.30;97.30
19007;DHT22;9636;47.382;8.480;2023-04-02T12:17:27;22.30;97.20
19007;DHT22;9636;47.382;8.480;2023-04-02T12:19:56;22.30;97.10
19007;DHT22;9636;47.382;8.480;2023-04-02T12:22:27;22.40;97.10
19007;DHT22;9636;47.382;8.480;2023-04-02T12:24:57;22.50;96.80
19007;DHT22;9636;47.382;8.480;2023-04-02T12:27:27;22.50;96.70
19007;DHT22;9636;47.382;8.480;2023-04-02T12:29:54;22.50;96.60
19007;DHT22;9636;47.382;8.480;2023-04-02T12:32:26;22.60;96.40
19007;DHT22;9636;47.382;8.480;2023-04-02T12:34:55;22.70;96.30
19007;DHT22;9636;47.382;8.480;2023-04-02T12:37:23;22.70;96.20
19007;DHT22;9636;47.382;8.480;2023-04-02T12:39:54;22.70;96.20
19007;DHT22;9636;47.382;8.480;2023-04-02T12:42:40;22.70;96.20
19007;DHT22;9636;47.382;8.480;2023-04-02T12:45:21;22.70;96.10
19007;DHT22;9636;47.382;8.480;2023-04-02T12:47:49;22.70;96.10
19007;DHT22;9636;47.382;8.480;2023-04-02T12:50:19;22.80;96.10
19007;DHT22;9636;47.382;8.480;2023-04-02T12:52:49;22.80;96.00
19007;DHT22;9636;47.382;8.480;2023-04-02T12:55:19;22.80;96.00
19007;DHT22;9636;47.382;8.480;2023-04-02T12:57:48;22.80;95.90
19007;DHT22;9636;47.382;8.480;2023-04-02T13:00:32;22.80;95.90
19007;DHT22;9636;47.382;8.480;2023-04-02T13:03:18;22.90;95.80
19007;DHT22;9636;47.382;8.480;2023-04-02T13:05:49;22.90;96.10
19007;DHT22;9636;47.382;8.480;2023-04-02T13:08:18;22.70;96.00
19007;DHT22;9636;47.382;8.480;2023-04-02T13:10:51;22.60;96.00
19007;DHT22;9636;47.382;8.480;2023-04-02T13:13:25;22.50;96.30
19007;DHT22;9636;47.382;8.480;2023-04-02T13:16:00;22.40;96.30
19007;DHT22;9636;47.382;8.480;2023-04-02T13:18:35;22.30;96.50
19007;DHT22;9636;47.382;8.480;2023-04-02T13:21:03;22.30;97.00
19007;DHT22;9636;47.382;8.480;2023-04-02T13:23:33;22.20;96.90
19007;DHT22;9636;47.382;8.480;2023-04-02T13:26:04;22.20;96.70
19007;DHT22;9636;47.382;8.480;2023-04-02T13:28:37;22.20;96.90
19007;DHT22;9636;47.382;8.480;2023-04-02T13:31:04;22.30;96.90
19007;DHT22;9636;47.382;8.480;2023-04-02T13:33:30;22.30;96.50
19007;DHT22;9636;47.382;8.480;2023-04-02T13:35:57;22.40;97.50
19007;DHT22;9636;47.382;8.480;2023-04-02T13:38:24;22.40;97.90
19007;DHT22;9636;47.382;8.480;2023-04-02T13:40:51;22.40;98.00
19007;DHT22;9636;47.382;8.480;2023-04-02T13:43:18;22.40;98.10
19007;DHT22;9636;47.382;8.480;2023-04-02T13:45:49;22.40;98.30
19007;DHT22;9636;47.382;8.480;2023-04-02T13:48:17;22.40;98.60
19007;DHT22;9636;47.382;8.480;2023-04-02T13:50:44;22.40;98.30
19007;DHT22;9636;47.382;8.480;2023-04-02T13:53:19;22.40;98.70
19007;DHT22;9636;47.382;8.480;2023-04-02T13:55:47;22.40;98.30
19007;DHT22;9636;47.382;8.480;2023-04-02T13:58:14;22.40;98.50
19007;DHT22;9636;47.382;8.480;2023-04-02T14:00:41;22.40;98.40
19007;DHT22;9636;47.382;8.480;2023-04-02T14:03:12;22.40;98.40
19007;DHT22;9636;47.382;8.480;2023-04-02T14:05:45;22.40;98.50
19007;DHT22;9636;47.382;8.480;2023-04-02T14:08:19;22.40;98.50
19007;DHT22;9636;47.382;8.480;2023-04-02T14:10:57;22.50;98.10
19007;DHT22;9636;47.382;8.480;2023-04-02T14:13:40;22.30;98.30
19007;DHT22;9636;47.382;8.480;2023-04-02T14:16:21;22.20;98.60
19007;DHT22;9636;47.382;8.480;2023-04-02T14:19:02;22.30;98.70
19007;DHT22;9636;47.382;8.480;2023-04-02T14:21:39;22.30;98.50
19007;DHT22;9636;47.382;8.480;2023-04-02T14:24:15;22.30;98.80
19007;DHT22;9636;47.382;8.480;2023-04-02T14:26:51;22.20;98.60
19007;DHT22;9636;47.382;8.480;2023-04-02T14:29:25;22.10;98.80
19007;DHT22;9636;47.382;8.480;2023-04-02T14:32:02;22.10;98.70
19007;DHT22;9636;47.382;8.480;2023-04-02T14:34:37;22.10;99.00
19007;DHT22;9636;47.382;8.480;2023-04-02T14:37:09;22.70;98.50
19007;DHT22;9636;47.382;8.480;2023-04-02T14:39:41;24.10;95.30
19007;DHT22;9636;47.382;8.480;2023-04-02T14:42:12;23.50;96.50
19007;DHT22;9636;47.382;8.480;2023-04-02T14:44:44;22.90;97.10
19007;DHT22;9636;47.382;8.480;2023-04-02T14:47:16;22.70;97.70
19007;DHT22;9636;47.382;8.480;2023-04-02T14:49:47;22.50;98.50
19007;DHT22;9636;47.382;8.480;2023-04-02T14:52:18;22.30;99.30
19007;DHT22;9636;47.382;8.480;2023-04-02T14:54:49;22.20;99.60
19007;DHT22;9636;47.382;8.480;2023-04-02T14:57:20;22.20;99.90
19007;DHT22;9636;47.382;8.480;2023-04-02T14:59:55;22.10;99.90
19007;DHT22;9636;47.382;8.480;2023-04-02T15:02:28;22.00;99.90
19007;DHT22;9636;47.382;8.480;2023-04-02T15:04:59;21.90;99.90
19007;DHT22;9636;47.382;8.480;2023-04-02T15:07:35;21.90;99.90
19007;DHT22;9636;47.382;8.480;2023-04-02T15:10:06;22.00;99.90
19007;DHT22;9636;47.382;8.480;2023-04-02T15:12:39;22.00;99.90
19007;DHT22;9636;47.382;8.480;2023-04-02T15:15:16;22.00;99.90
19007;DHT22;9636;47.382;8.480;2023-04-02T15:17:44;22.00;99.90
19007;DHT22;9636;47.382;8.480;2023-04-02T15:20:14;22.00;99.90
19007;DHT22;9636;47.382;8.480;2023-04-02T15:22:52;21.90;99.90
19007;DHT22;9636;47.382;8.480;2023-04-02T15:25:28;21.90;99.90
19007;DHT22;9636;47.382;8.480;2023-04-02T15:28:05;21.90;99.90
19007;DHT22;9636;47.382;8.480;2023-04-02T15:30:34;21.90;99.90
19007;DHT22;9636;47.382;8.480;2023-04-02T15:36:27;21.90;99.90
19007;DHT22;9636;47.382;8.480;2023-04-02T15:39:02;21.80;99.90
19007;DHT22;9636;47.382;8.480;2023-04-02T15:41:37;21.80;99.90
19007;DHT22;9636;47.382;8.480;2023-04-02T15:44:08;21.80;99.90
19007;DHT22;9636;47.382;8.480;2023-04-02T15:46:43;21.80;99.90
19007;DHT22;9636;47.382;8.480;2023-04-02T15:49:31;21.70;99.90
19007;DHT22;9636;47.382;8.480;2023-04-02T15:52:07;21.70;99.90
19007;DHT22;9636;47.382;8.480;2023-04-02T15:54:53;21.70;99.60
19007;DHT22;9636;47.382;8.480;2023-04-02T15:57:33;21.70;99.90
19007;DHT22;9636;47.382;8.480;2023-04-02T16:00:27;21.80;94.40
19007;DHT22;9636;47.382;8.480;2023-04-02T16:03:19;21.80;95.60
19007;DHT22;9636;47.382;8.480;2023-04-02T16:06:13;21.70;97.80
19007;DHT22;9636;47.382;8.480;2023-04-02T16:08:55;21.70;98.90
19007;DHT22;9636;47.382;8.480;2023-04-02T16:11:24;21.70;99.80
19007;DHT22;9636;47.382;8.480;2023-04-02T16:13:57;21.70;99.90
19007;DHT22;9636;47.382;8.480;2023-04-02T16:16:30;21.70;99.90
19007;DHT22;9636;47.382;8.480;2023-04-02T16:19:01;21.70;99.90
19007;DHT22;9636;47.382;8.480;2023-04-02T16:21:31;21.60;99.90
19007;DHT22;9636;47.382;8.480;2023-04-02T16:24:00;21.60;99.90
19007;DHT22;9636;47.382;8.480;2023-04-02T16:26:36;21.50;99.90
19007;DHT22;9636;47.382;8.480;2023-04-02T16:29:23;21.50;99.90
19007;DHT22;9636;47.382;8.480;2023-04-02T16:31:57;21.40;99.90
19007;DHT22;9636;47.382;8.480;2023-04-02T16:34:35;21.40;99.90
19007;DHT22;9636;47.382;8.480;2023-04-02T16:37:11;21.40;99.90